Time;durP1;ratioP1;P1;durP2;ratioP2;P2;SDS_P1;SDS_P2;PMS_P1;PMS_P2;Temp;Humidity;BMP_temperature;BMP_pressure;BME280_temperature;BME280_humidity;BME280_pressure;Samples;Min_cycle;Max_cycle;Signal;HPM_P1;HPM_P2
2022/04/29 00:00:11;;;;;;;12.90;5.90;;;7.30;99.90;;;;;;5076270;28;20040;-73
2022/04/29 00:02:39;;;;;;;23.00;6.22;;;7.30;99.90;;;;;;5076514;28;20504;-73
2022/04/29 00:05:06;;;;;;;13.50;5.25;;;7.30;99.90;;;;;;5076688;28;20714;-73
2022/04/29 00:07:31;;;;;;;12.10;6.95;;;7.20;99.90;;;;;;5060128;28;20044;-74
2022/04/29 00:09:57;;;;;;;10.75;5.28;;;7.20;99.90;;;;;;5059582;28;20056;-72
2022/04/29 00:12:23;;;;;;;11.82;5.45;;;7.20;99.90;;;;;;5094502;28;20115;-73
2022/04/29 00:14:48;;;;;;;10.27;5.03;;;7.10;99.90;;;;;;5076217;28;20036;-72
2022/04/29 00:17:14;;;;;;;13.77;5.25;;;7.20;99.90;;;;;;5075779;28;20072;-72
2022/04/29 00:19:40;;;;;;;17.88;5.57;;;7.20;99.90;;;;;;5094062;28;20047;-73
2022/04/29 00:22:05;;;;;;;13.20;6.32;;;7.20;99.90;;;;;;5094327;28;20140;-74
2022/04/29 00:24:31;;;;;;;18.45;5.22;;;7.20;99.90;;;;;;5076028;28;20044;-72
2022/04/29 00:26:58;;;;;;;20.15;5.50;;;7.10;99.90;;;;;;5076062;28;20082;-72
2022/04/29 00:29:24;;;;;;;10.68;5.63;;;7.10;99.90;;;;;;5075936;28;20035;-72
2022/04/29 00:31:50;;;;;;;10.68;6.15;;;7.10;99.90;;;;;;5076159;28;20044;-73
2022/04/29 00:34:16;;;;;;;11.25;5.93;;;7.10;99.90;;;;;;5076308;28;20412;-72
2022/04/29 00:36:42;;;;;;;14.57;5.95;;;7.10;99.90;;;;;;5094335;28;20044;-72
2022/04/29 00:39:07;;;;;;;17.15;6.05;;;7.10;99.90;;;;;;5075869;28;20043;-72
2022/04/29 00:41:33;;;;;;;13.02;5.60;;;7.10;99.90;;;;;;5094484;28;20039;-72
2022/04/29 00:44:09;;;;;;;12.63;5.90;;;7.10;99.90;;;;;;5094558;28;20584;-72
2022/04/29 00:46:39;;;;;;;18.48;5.85;;;7.10;99.90;;;;;;5094285;28;20488;-72
2022/04/29 00:49:07;;;;;;;13.50;5.70;;;7.00;99.90;;;;;;5076056;28;20809;-72
2022/04/29 00:51:32;;;;;;;13.15;5.35;;;7.00;99.90;;;;;;5074610;28;20043;-73
2022/04/29 00:54:00;;;;;;;13.85;5.90;;;7.00;99.90;;;;;;5095289;28;20036;-72
2022/04/29 00:56:29;;;;;;;9.65;4.82;;;6.90;99.90;;;;;;5076665;28;20106;-72
2022/04/29 00:59:09;;;;;;;12.35;5.78;;;6.90;99.90;;;;;;5076333;28;20064;-73
2022/04/29 01:01:37;;;;;;;15.30;5.63;;;6.90;99.90;;;;;;5077287;28;20067;-73
2022/04/29 01:04:03;;;;;;;8.65;6.00;;;6.90;99.90;;;;;;5077183;28;20043;-73
2022/04/29 01:06:29;;;;;;;11.73;5.10;;;6.70;99.90;;;;;;5076456;28;20047;-73
2022/04/29 01:08:55;;;;;;;11.57;5.07;;;6.70;99.90;;;;;;5093833;28;20043;-73
2022/04/29 01:11:24;;;;;;;8.05;4.95;;;6.70;99.90;;;;;;5075307;28;20043;-74
2022/04/29 01:13:51;;;;;;;10.77;5.03;;;6.70;99.90;;;;;;5058790;28;20097;-72
2022/04/29 01:16:18;;;;;;;9.20;5.85;;;6.70;99.90;;;;;;5092734;28;20080;-73
2022/04/29 01:18:45;;;;;;;16.38;6.05;;;6.60;99.90;;;;;;5074825;28;20031;-72
2022/04/29 01:21:12;;;;;;;11.23;6.20;;;6.60;99.90;;;;;;5093393;28;20040;-74
2022/04/29 01:23:38;;;;;;;17.83;5.28;;;6.50;99.90;;;;;;5093236;28;20044;-72
2022/04/29 01:26:04;;;;;;;14.30;5.15;;;6.40;99.90;;;;;;5074964;28;20038;-72
2022/04/29 01:28:31;;;;;;;12.75;5.95;;;6.40;99.90;;;;;;5092709;28;20044;-73
2022/04/29 01:30:59;;;;;;;10.13;5.57;;;6.50;99.90;;;;;;5093346;28;20473;-73
2022/04/29 01:33:28;;;;;;;8.65;5.07;;;6.40;99.90;;;;;;5093158;28;20043;-72
2022/04/29 01:35:55;;;;;;;10.75;5.55;;;6.40;99.90;;;;;;5058460;28;20040;-73
2022/04/29 01:38:20;;;;;;;12.45;5.75;;;6.30;99.90;;;;;;5093133;28;20393;-72
2022/04/29 01:40:46;;;;;;;12.15;5.47;;;6.30;99.90;;;;;;5074707;28;20044;-72
2022/04/29 01:43:11;;;;;;;14.02;5.35;;;6.30;99.90;;;;;;5074787;28;20113;-72
2022/04/29 01:45:37;;;;;;;10.77;5.68;;;6.30;99.90;;;;;;5092754;28;20044;-72
2022/04/29 01:48:03;;;;;;;12.27;5.55;;;6.20;99.90;;;;;;5074580;28;20074;-72
2022/04/29 01:50:29;;;;;;;17.90;5.75;;;6.20;99.90;;;;;;5057736;28;20124;-72
2022/04/29 01:52:54;;;;;;;11.82;4.68;;;6.20;99.90;;;;;;5092785;28;20483;-72
2022/04/29 01:55:20;;;;;;;13.32;5.40;;;6.20;99.90;;;;;;5057714;28;20035;-72
2022/04/29 01:57:50;;;;;;;14.35;5.53;;;6.20;99.90;;;;;;5092494;28;20044;-72
2022/04/29 02:00:17;;;;;;;12.95;6.18;;;6.20;99.90;;;;;;5074120;28;20051;-73
2022/04/29 02:02:43;;;;;;;9.35;5.93;;;6.10;99.90;;;;;;5092072;28;20062;-72
2022/04/29 02:05:09;;;;;;;13.30;6.53;;;6.20;99.90;;;;;;5057871;28;20483;-72
2022/04/29 02:07:34;;;;;;;14.90;6.03;;;6.10;99.90;;;;;;5092349;28;20051;-72
2022/04/29 02:10:00;;;;;;;9.30;6.03;;;6.00;99.90;;;;;;5092102;28;20044;-74
2022/04/29 02:12:26;;;;;;;11.00;5.47;;;6.00;99.90;;;;;;5092266;28;20048;-72
2022/04/29 02:14:51;;;;;;;11.15;5.82;;;6.00;99.90;;;;;;5074205;28;20700;-72
2022/04/29 02:17:17;;;;;;;11.95;5.50;;;5.90;99.90;;;;;;5073725;28;20519;-72
2022/04/29 02:19:43;;;;;;;10.07;5.53;;;5.90;99.90;;;;;;5073838;28;20036;-72
2022/04/29 02:22:09;;;;;;;12.07;5.55;;;5.90;99.90;;;;;;5074002;28;20032;-73
2022/04/29 02:24:35;;;;;;;14.27;5.75;;;6.00;99.90;;;;;;5092170;28;20036;-72
2022/04/29 02:27:03;;;;;;;11.75;5.90;;;6.00;99.90;;;;;;5091902;28;20577;-72
2022/04/29 02:29:28;;;;;;;14.77;5.13;;;6.00;99.90;;;;;;5073753;28;20399;-72
2022/04/29 02:31:58;;;;;;;10.23;6.40;;;5.90;99.90;;;;;;5091917;28;20061;-72
2022/04/29 02:34:24;;;;;;;11.32;5.55;;;5.80;99.90;;;;;;5091751;28;20046;-72
2022/04/29 02:36:50;;;;;;;16.17;6.03;;;5.90;99.90;;;;;;5091703;28;20050;-72
2022/04/29 02:39:15;;;;;;;10.50;5.95;;;5.80;99.90;;;;;;5091537;28;20040;-72
2022/04/29 02:41:41;;;;;;;14.15;6.50;;;5.80;99.90;;;;;;5091663;28;20040;-72
2022/04/29 02:44:07;;;;;;;12.98;6.10;;;5.80;99.90;;;;;;5056811;28;20119;-73
2022/04/29 02:46:33;;;;;;;14.07;6.45;;;5.80;99.90;;;;;;5073665;28;20508;-72
2022/04/29 02:48:59;;;;;;;21.13;6.38;;;5.80;99.90;;;;;;5091280;28;20085;-72
2022/04/29 02:51:24;;;;;;;11.93;5.95;;;5.80;99.90;;;;;;5091783;28;20040;-72
2022/04/29 02:53:51;;;;;;;14.13;6.25;;;5.80;99.90;;;;;;5091791;28;20080;-72
2022/04/29 02:56:17;;;;;;;11.20;6.32;;;5.80;99.90;;;;;;5073468;28;20043;-72
2022/04/29 02:58:43;;;;;;;10.88;6.07;;;5.90;99.90;;;;;;5072896;28;20078;-72
2022/04/29 03:01:08;;;;;;;17.58;5.93;;;5.80;99.90;;;;;;5073393;28;20040;-71
2022/04/29 03:03:34;;;;;;;11.63;5.60;;;5.90;99.90;;;;;;5073108;28;20032;-72
2022/04/29 03:06:00;;;;;;;13.77;7.32;;;5.90;99.90;;;;;;5073237;28;20047;-72
2022/04/29 03:08:25;;;;;;;15.95;6.60;;;5.80;99.90;;;;;;5073028;28;20100;-76
2022/04/29 03:10:51;;;;;;;14.23;6.63;;;5.90;99.90;;;;;;5073176;28;20427;-72
2022/04/29 03:13:16;;;;;;;16.48;6.28;;;5.90;99.90;;;;;;5072663;28;20130;-72
2022/04/29 03:15:42;;;;;;;13.15;6.25;;;5.80;99.90;;;;;;5091110;28;20040;-72
2022/04/29 03:18:23;;;;;;;13.80;6.28;;;5.80;99.90;;;;;;5072968;28;20040;-73
2022/04/29 03:20:53;;;;;;;15.85;6.90;;;5.80;99.90;;;;;;5072889;28;20075;-72
2022/04/29 03:23:19;;;;;;;14.95;6.80;;;5.80;99.90;;;;;;5072990;28;20493;-72
2022/04/29 03:25:45;;;;;;;13.88;7.40;;;5.80;99.90;;;;;;5072906;28;20165;-72
2022/04/29 03:28:11;;;;;;;14.40;6.82;;;5.80;99.90;;;;;;5072937;28;20526;-72
2022/04/29 03:30:37;;;;;;;13.35;6.65;;;5.90;99.90;;;;;;5090622;28;20040;-72
2022/04/29 03:33:04;;;;;;;14.82;6.20;;;5.80;99.90;;;;;;5072851;28;20044;-73
2022/04/29 03:35:30;;;;;;;11.75;6.25;;;5.80;99.90;;;;;;5073102;28;20385;-73
2022/04/29 03:37:56;;;;;;;12.00;6.53;;;5.80;99.90;;;;;;5072803;28;20039;-73
2022/04/29 03:40:25;;;;;;;12.05;6.70;;;5.80;99.90;;;;;;5090780;28;20040;-71
2022/04/29 03:42:52;;;;;;;17.60;6.85;;;5.90;99.90;;;;;;5090997;28;20036;-73
2022/04/29 03:45:19;;;;;;;14.68;6.63;;;5.80;99.90;;;;;;5090785;28;20093;-72
2022/04/29 03:47:45;;;;;;;16.70;6.35;;;5.80;99.90;;;;;;5056237;28;20040;-72
2022/04/29 03:50:11;;;;;;;16.80;6.53;;;5.70;99.90;;;;;;5090883;28;20085;-72
2022/04/29 03:52:51;;;;;;;11.23;5.78;;;5.80;99.90;;;;;;5072805;28;20032;-72
2022/04/29 03:55:19;;;;;;;10.82;6.03;;;5.80;99.90;;;;;;5072642;28;20237;-74
2022/04/29 03:57:44;;;;;;;17.75;6.68;;;5.80;99.90;;;;;;5090648;28;20036;-72
2022/04/29 04:00:11;;;;;;;13.80;6.80;;;5.70;99.90;;;;;;5090499;28;20117;-72
2022/04/29 04:02:36;;;;;;;11.27;6.40;;;5.70;99.90;;;;;;5055902;28;20031;-72
2022/04/29 04:05:03;;;;;;;16.48;7.20;;;5.70;99.90;;;;;;5090794;28;20038;-72
2022/04/29 04:07:28;;;;;;;15.05;7.18;;;5.60;99.90;;;;;;5090429;28;20036;-72
2022/04/29 04:09:55;;;;;;;14.80;6.30;;;5.60;99.90;;;;;;5088083;28;20052;-73
2022/04/29 04:12:20;;;;;;;13.50;6.70;;;5.60;99.90;;;;;;5088442;28;20058;-72
2022/04/29 04:14:46;;;;;;;13.75;6.40;;;5.60;99.90;;;;;;5072174;28;20127;-74
2022/04/29 04:17:11;;;;;;;19.95;7.18;;;5.60;99.90;;;;;;5071576;28;20128;-72
2022/04/29 04:19:37;;;;;;;13.02;5.93;;;5.70;99.90;;;;;;5055605;28;20047;-73
2022/04/29 04:22:03;;;;;;;13.25;7.07;;;5.60;99.90;;;;;;5090601;28;20115;-72
2022/04/29 04:24:29;;;;;;;16.92;6.53;;;5.70;99.90;;;;;;5072887;28;20385;-72
2022/04/29 04:26:55;;;;;;;17.98;8.00;;;5.70;99.90;;;;;;5075965;28;20054;-72
2022/04/29 04:29:20;;;;;;;16.40;7.05;;;5.70;99.90;;;;;;5059048;28;20563;-72
2022/04/29 04:31:47;;;;;;;13.75;6.13;;;5.70;99.90;;;;;;5076094;28;20175;-73
2022/04/29 04:36:57;;;;;;;18.13;7.35;;;5.70;99.90;;;;;;5075964;28;20126;-72
2022/04/29 04:39:23;;;;;;;11.35;6.50;;;5.60;99.90;;;;;;5075602;28;20071;-72
2022/04/29 04:41:49;;;;;;;17.33;7.50;;;5.70;99.90;;;;;;5075786;28;20476;-72
2022/04/29 04:44:14;;;;;;;16.95;8.18;;;5.70;99.90;;;;;;5075728;28;20077;-73
2022/04/29 04:46:40;;;;;;;18.40;7.43;;;5.70;99.90;;;;;;5058937;28;20043;-73
2022/04/29 04:49:06;;;;;;;17.80;7.20;;;5.70;99.90;;;;;;5075316;28;20073;-73
2022/04/29 04:51:31;;;;;;;19.30;7.13;;;5.70;99.90;;;;;;5075653;28;20079;-72
2022/04/29 04:53:57;;;;;;;13.95;7.25;;;5.80;99.90;;;;;;5075455;28;20071;-72
2022/04/29 04:56:23;;;;;;;14.65;6.88;;;5.80;99.90;;;;;;5075717;28;20036;-72
2022/04/29 04:58:48;;;;;;;14.38;8.05;;;5.80;99.90;;;;;;5075160;28;20118;-72
2022/04/29 05:01:14;;;;;;;19.05;8.70;;;5.80;99.90;;;;;;5058727;28;20040;-74
2022/04/29 05:03:40;;;;;;;16.05;7.55;;;5.90;99.90;;;;;;5075756;28;20036;-72
2022/04/29 05:06:05;;;;;;;16.00;8.02;;;5.90;99.90;;;;;;5058763;28;20089;-73
2022/04/29 05:08:31;;;;;;;19.83;8.00;;;5.90;99.90;;;;;;5058424;28;20043;-72
2022/04/29 05:10:56;;;;;;;19.40;7.80;;;6.00;99.90;;;;;;5075392;28;20399;-73
2022/04/29 05:13:22;;;;;;;22.17;8.52;;;6.00;99.90;;;;;;5075637;28;20096;-72
2022/04/29 05:15:47;;;;;;;22.02;8.85;;;6.00;99.90;;;;;;5075228;28;20040;-72
2022/04/29 05:18:15;;;;;;;17.15;7.63;;;6.10;99.90;;;;;;5075222;28;20498;-72
2022/04/29 05:20:40;;;;;;;17.20;8.60;;;6.10;99.90;;;;;;5074903;28;20046;-72
2022/04/29 05:23:06;;;;;;;21.13;8.73;;;6.20;99.90;;;;;;5058338;28;20479;-72
2022/04/29 05:25:33;;;;;;;17.85;8.38;;;6.20;99.90;;;;;;5058567;28;20458;-71
2022/04/29 05:27:59;;;;;;;16.88;9.02;;;6.30;99.90;;;;;;5075178;28;20069;-73
2022/04/29 05:30:26;;;;;;;20.48;7.68;;;6.40;99.90;;;;;;5074650;28;20040;-72
2022/04/29 05:32:53;;;;;;;21.83;8.63;;;6.60;99.90;;;;;;5093063;28;20051;-72
2022/04/29 05:35:18;;;;;;;16.05;8.50;;;6.70;99.90;;;;;;5058122;28;20568;-72
2022/04/29 05:37:44;;;;;;;13.05;7.13;;;6.70;99.90;;;;;;5073962;28;20123;-72
2022/04/29 05:42:55;;;;;;;18.27;6.88;;;6.90;99.90;;;;;;5092748;28;20048;-72
2022/04/29 05:45:21;;;;;;;16.48;7.53;;;7.00;99.90;;;;;;5074837;28;20036;-72
2022/04/29 05:47:46;;;;;;;15.43;7.15;;;7.10;99.90;;;;;;5092757;28;20036;-72
2022/04/29 05:50:12;;;;;;;15.27;7.65;;;7.10;99.90;;;;;;5092362;28;20044;-72
2022/04/29 05:52:37;;;;;;;18.98;7.55;;;7.20;99.90;;;;;;5074472;28;20432;-73
2022/04/29 05:55:03;;;;;;;16.30;8.98;;;7.20;99.90;;;;;;5074412;28;20458;-72
2022/04/29 05:57:29;;;;;;;19.13;7.30;;;7.30;99.90;;;;;;5057546;28;20042;-72
2022/04/29 05:59:54;;;;;;;16.90;6.57;;;7.30;99.90;;;;;;5092243;28;20036;-72
2022/04/29 06:02:23;;;;;;;11.35;5.93;;;7.40;99.90;;;;;;5092504;28;20051;-72
2022/04/29 06:04:49;;;;;;;12.75;6.47;;;7.40;99.90;;;;;;5074067;28;20048;-72
2022/04/29 06:07:14;;;;;;;14.65;6.55;;;7.50;99.90;;;;;;5074393;28;20503;-72
2022/04/29 06:09:40;;;;;;;10.52;5.97;;;7.50;99.90;;;;;;5074155;28;20044;-72
2022/04/29 06:12:07;;;;;;;13.50;6.82;;;7.50;99.90;;;;;;5092429;28;20039;-72
2022/04/29 06:14:35;;;;;;;15.68;5.80;;;7.60;99.90;;;;;;5092461;28;20096;-72
2022/04/29 06:17:00;;;;;;;11.82;6.68;;;7.60;99.90;;;;;;5092159;28;20044;-72
2022/04/29 06:19:26;;;;;;;13.65;6.32;;;7.70;99.90;;;;;;5091826;28;20044;-72
2022/04/29 06:21:51;;;;;;;18.42;7.43;;;7.70;99.90;;;;;;5092345;28;20396;-71
2022/04/29 06:24:17;;;;;;;12.38;6.57;;;7.70;99.90;;;;;;5057198;28;20047;-71
2022/04/29 06:26:42;;;;;;;18.83;7.25;;;7.70;99.90;;;;;;5092034;28;20055;-72
2022/04/29 06:29:09;;;;;;;21.80;7.78;;;7.70;99.90;;;;;;5091832;28;20071;-71
2022/04/29 06:31:35;;;;;;;14.40;6.43;;;7.70;99.90;;;;;;5074061;28;20408;-72
2022/04/29 06:34:00;;;;;;;19.25;7.22;;;7.80;99.90;;;;;;5091773;28;20045;-72
2022/04/29 06:36:26;;;;;;;11.18;7.18;;;7.80;99.90;;;;;;5091789;28;20062;-71
2022/04/29 06:38:51;;;;;;;13.43;6.43;;;7.90;99.90;;;;;;5073426;28;20071;-71
2022/04/29 06:41:17;;;;;;;10.23;6.25;;;7.90;99.90;;;;;;5073667;28;20399;-72
2022/04/29 06:43:42;;;;;;;19.08;6.03;;;7.90;99.90;;;;;;5073680;28;20040;-71
2022/04/29 06:46:09;;;;;;;13.95;6.00;;;8.00;99.90;;;;;;5091627;28;20036;-71
2022/04/29 06:48:34;;;;;;;12.73;6.90;;;8.00;99.90;;;;;;5091272;28;20032;-72
2022/04/29 06:51:00;;;;;;;14.95;6.32;;;8.00;99.90;;;;;;5056756;28;20036;-71
2022/04/29 06:53:25;;;;;;;11.73;6.38;;;8.10;99.90;;;;;;5091550;28;20036;-71
2022/04/29 06:55:51;;;;;;;12.00;6.28;;;8.10;99.90;;;;;;5091487;28;20047;-73
2022/04/29 06:58:16;;;;;;;13.00;6.70;;;8.20;99.90;;;;;;5091165;28;20456;-76
2022/04/29 07:00:43;;;;;;;18.80;6.65;;;8.20;99.90;;;;;;5091447;28;20036;-71
2022/04/29 07:03:09;;;;;;;10.48;6.15;;;8.20;99.90;;;;;;5073100;28;20039;-71
2022/04/29 07:05:41;;;;;;;16.75;6.45;;;8.30;99.90;;;;;;5073082;28;20036;-71
2022/04/29 07:08:07;;;;;;;12.85;6.32;;;8.30;99.90;;;;;;5056525;28;20078;-71
2022/04/29 07:10:33;;;;;;;11.30;6.10;;;8.30;99.90;;;;;;5072841;28;20040;-72
2022/04/29 07:12:58;;;;;;;11.25;6.88;;;8.40;99.90;;;;;;5073057;28;20484;-72
2022/04/29 07:15:24;;;;;;;18.48;7.05;;;8.40;99.90;;;;;;5091150;28;20075;-72
2022/04/29 07:17:49;;;;;;;15.55;7.03;;;8.40;99.90;;;;;;5091075;28;20065;-73
2022/04/29 07:20:15;;;;;;;17.40;6.38;;;8.50;99.90;;;;;;5091093;28;20043;-72
2022/04/29 07:22:42;;;;;;;9.70;5.70;;;8.50;99.90;;;;;;5091153;28;20047;-72
2022/04/29 07:25:09;;;;;;;11.73;5.05;;;8.50;99.90;;;;;;5090992;28;20082;-71
2022/04/29 07:27:35;;;;;;;9.88;5.00;;;8.50;99.90;;;;;;5091001;28;20404;-72
2022/04/29 07:30:02;;;;;;;8.82;4.82;;;8.60;99.90;;;;;;5090735;28;20051;-72
2022/04/29 07:32:28;;;;;;;9.90;4.65;;;8.60;99.90;;;;;;5091168;28;20044;-72
2022/04/29 07:43:09;;;;;;;11.20;5.38;;;8.70;99.90;;;;;;5091074;28;20105;-72
2022/04/29 07:45:36;;;;;;;8.38;5.55;;;8.80;99.90;;;;;;5091036;28;20043;-71
2022/04/29 07:48:05;;;;;;;11.85;5.72;;;8.90;99.90;;;;;;5055935;28;20489;-71
2022/04/29 07:50:31;;;;;;;6.28;5.63;;;8.90;99.90;;;;;;5072515;28;20484;-73
2022/04/29 07:52:58;;;;;;;13.38;7.35;;;9.00;99.90;;;;;;5090947;28;20057;-72
2022/04/29 07:55:23;;;;;;;8.73;5.97;;;9.00;99.90;;;;;;5090727;28;20036;-72
2022/04/29 07:57:49;;;;;;;14.35;6.88;;;9.10;99.90;;;;;;5090652;28;20036;-72
2022/04/29 08:00:15;;;;;;;12.20;5.65;;;9.20;99.90;;;;;;5092115;28;20063;-73
2022/04/29 08:02:41;;;;;;;9.05;6.40;;;9.20;99.90;;;;;;5094893;28;20105;-74
2022/04/29 08:05:06;;;;;;;8.45;5.97;;;9.30;99.90;;;;;;5094801;28;20119;-72
2022/04/29 08:07:33;;;;;;;9.35;6.00;;;9.20;99.90;;;;;;5094655;28;20042;-72
2022/04/29 08:09:59;;;;;;;13.95;5.35;;;9.30;99.90;;;;;;5059744;28;20039;-73
2022/04/29 08:12:26;;;;;;;10.45;5.65;;;9.30;99.90;;;;;;5076608;28;20047;-72
2022/04/29 08:14:53;;;;;;;7.82;5.32;;;9.40;99.90;;;;;;5059605;28;20044;-72
2022/04/29 08:17:19;;;;;;;9.00;4.82;;;9.40;99.90;;;;;;5094695;28;20050;-71
2022/04/29 08:19:45;;;;;;;11.15;6.22;;;9.50;99.90;;;;;;5076248;28;20479;-72
2022/04/29 08:22:11;;;;;;;8.55;5.57;;;9.60;99.90;;;;;;5094356;28;20124;-72
2022/04/29 08:24:37;;;;;;;13.30;5.95;;;9.60;99.90;;;;;;5076265;28;20036;-71
2022/04/29 08:27:03;;;;;;;12.07;5.32;;;9.70;99.90;;;;;;5094407;28;20119;-71
2022/04/29 08:29:29;;;;;;;9.63;4.55;;;9.70;99.90;;;;;;5094040;28;20035;-72
2022/04/29 08:31:54;;;;;;;10.07;5.28;;;9.70;99.90;;;;;;5094241;28;20085;-72
2022/04/29 08:34:20;;;;;;;6.90;4.70;;;9.80;99.90;;;;;;5094201;28;20766;-72
2022/04/29 08:36:45;;;;;;;7.40;4.55;;;9.80;99.90;;;;;;5093978;28;20043;-73
2022/04/29 08:39:11;;;;;;;6.10;4.60;;;9.80;99.90;;;;;;5093923;28;20040;-71
2022/04/29 08:41:38;;;;;;;9.02;5.47;;;10.00;99.90;;;;;;5093990;28;20407;-72
2022/04/29 08:44:08;;;;;;;5.93;4.78;;;10.00;99.90;;;;;;5075836;28;20044;-72
2022/04/29 08:46:33;;;;;;;7.05;4.57;;;10.10;99.90;;;;;;5094359;28;20040;-74
2022/04/29 08:49:01;;;;;;;12.63;4.35;;;10.20;99.90;;;;;;5093723;28;20059;-72
2022/04/29 08:51:27;;;;;;;9.07;4.32;;;10.30;99.90;;;;;;5093829;28;20497;-72
2022/04/29 08:53:53;;;;;;;9.98;4.82;;;10.30;99.90;;;;;;5093973;28;20181;-72
2022/04/29 08:59:04;;;;;;;7.18;4.03;;;10.50;99.90;;;;;;5093453;28;20119;-72
2022/04/29 09:01:30;;;;;;;9.77;4.72;;;10.60;99.90;;;;;;5075502;28;20036;-74
2022/04/29 09:03:56;;;;;;;8.00;4.10;;;10.60;99.90;;;;;;5093465;28;20043;-72
2022/04/29 09:06:22;;;;;;;7.47;4.40;;;10.80;99.90;;;;;;5075266;28;20046;-72
2022/04/29 09:08:48;;;;;;;6.53;3.80;;;10.70;99.90;;;;;;5075048;28;20032;-72
2022/04/29 09:11:26;;;;;;;5.45;4.32;;;10.80;99.90;;;;;;5092300;28;20128;-73
2022/04/29 09:13:52;;;;;;;8.23;4.22;;;10.70;99.90;;;;;;5093515;28;20059;-72
2022/04/29 09:16:18;;;;;;;10.18;4.15;;;10.80;99.90;;;;;;5093210;28;20463;-72
2022/04/29 09:18:46;;;;;;;5.95;4.80;;;10.80;99.90;;;;;;5093016;28;20119;-72
2022/04/29 09:21:17;;;;;;;8.93;4.25;;;10.70;99.90;;;;;;5093201;28;20618;-71
2022/04/29 09:23:44;;;;;;;12.13;4.70;;;10.80;99.90;;;;;;5093388;28;20435;-73
2022/04/29 09:26:36;;;;;;;13.40;4.82;;;10.70;99.90;;;;;;5093270;28;20043;-72
2022/04/29 09:29:15;;;;;;;6.82;4.38;;;10.70;99.90;;;;;;5074816;28;20044;-72
2022/04/29 09:31:53;;;;;;;8.50;4.40;;;10.80;99.90;;;;;;5075065;28;20043;-72
2022/04/29 09:34:19;;;;;;;7.35;4.30;;;10.80;99.90;;;;;;5074930;28;20093;-72
2022/04/29 09:36:44;;;;;;;9.02;4.82;;;10.80;99.90;;;;;;5092847;28;20412;-72
2022/04/29 09:39:30;;;;;;;7.10;4.72;;;11.10;99.90;;;;;;5057911;28;20043;-72
2022/04/29 09:41:57;;;;;;;5.95;4.43;;;11.10;99.90;;;;;;5074769;28;20051;-72
2022/04/29 09:44:28;;;;;;;9.10;4.78;;;11.10;99.90;;;;;;5092980;28;20074;-72
2022/04/29 09:46:53;;;;;;;10.45;4.78;;;11.10;99.90;;;;;;5092602;28;20067;-72
2022/04/29 09:49:21;;;;;;;5.18;4.68;;;11.20;99.90;;;;;;5092509;28;20440;-73
2022/04/29 09:51:48;;;;;;;6.78;4.38;;;11.20;99.90;;;;;;5057786;28;20100;-72
2022/04/29 09:54:19;;;;;;;5.85;4.80;;;11.30;99.90;;;;;;5092853;28;20610;-73
2022/04/29 09:57:01;;;;;;;8.95;4.55;;;11.20;99.90;;;;;;5092825;28;20051;-72
2022/04/29 09:59:33;;;;;;;10.30;4.88;;;11.30;99.90;;;;;;5074534;28;20466;-72
2022/04/29 10:02:00;;;;;;;9.63;4.35;;;11.40;99.90;;;;;;5093212;28;20032;-72
2022/04/29 10:04:28;;;;;;;11.85;4.60;;;11.60;99.90;;;;;;5074787;28;20048;-72
2022/04/29 10:06:54;;;;;;;11.60;5.47;;;11.70;99.90;;;;;;5075403;28;20048;-72
2022/04/29 10:09:22;;;;;;;8.73;4.45;;;11.80;99.90;;;;;;5075184;28;20104;-72
2022/04/29 10:11:49;;;;;;;10.20;4.20;;;11.90;99.90;;;;;;5076858;28;20052;-73
2022/04/29 10:14:17;;;;;;;7.72;4.05;;;11.80;99.90;;;;;;5077777;28;20044;-72
2022/04/29 10:21:15;;;;;;;7.57;4.25;;;11.80;99.90;;;;;;5094941;28;20039;-72
2022/04/29 10:22:16;;;;;;;6.80;4.28;;;11.70;99.90;;;;;;5075988;28;20044;-73
2022/04/29 10:24:42;;;;;;;8.98;3.60;;;11.80;99.90;;;;;;5073813;28;20123;-72
2022/04/29 10:27:08;;;;;;;7.53;4.10;;;11.70;99.90;;;;;;5073854;28;20539;-73
2022/04/29 10:29:34;;;;;;;9.00;4.72;;;11.80;99.90;;;;;;5073468;28;20044;-72
2022/04/29 10:32:10;;;;;;;9.20;4.13;;;11.90;99.90;;;;;;5073824;28;20039;-73
2022/04/29 10:34:36;;;;;;;5.20;3.60;;;12.00;99.90;;;;;;5073675;28;20119;-72
2022/04/29 10:37:10;;;;;;;11.88;4.20;;;11.90;99.90;;;;;;5073782;28;20044;-73
2022/04/29 10:39:36;;;;;;;9.18;3.90;;;11.80;99.90;;;;;;5073574;28;20073;-72
2022/04/29 10:42:05;;;;;;;5.93;3.95;;;12.00;99.90;;;;;;5073568;28;20148;-72
2022/04/29 10:44:31;;;;;;;5.25;3.50;;;12.00;99.90;;;;;;5091563;28;20126;-72
2022/04/29 10:47:17;;;;;;;7.90;3.90;;;11.90;99.90;;;;;;5073693;28;20139;-73
2022/04/29 10:49:42;;;;;;;5.32;2.88;;;11.90;99.90;;;;;;5091200;28;20040;-72
2022/04/29 10:52:25;;;;;;;5.13;3.65;;;11.90;99.90;;;;;;5073636;28;20240;-72
2022/04/29 10:54:55;;;;;;;;;;;11.90;99.90;;;;;;5073889;28;20083;-74
2022/04/29 10:57:36;;;;;;;5.28;3.70;;;12.00;99.90;;;;;;5073393;28;19923;-74
2022/04/29 11:00:10;;;;;;;7.38;3.70;;;12.00;99.90;;;;;;5072918;28;20062;-73
2022/04/29 11:02:35;;;;;;;5.55;3.38;;;12.00;99.90;;;;;;5073302;28;20068;-72
2022/04/29 11:05:02;;;;;;;9.02;3.35;;;12.00;99.90;;;;;;5073060;28;20098;-73
2022/04/29 11:07:37;;;;;;;6.82;3.58;;;12.00;99.90;;;;;;5091502;28;20040;-72
2022/04/29 11:10:05;;;;;;;8.80;4.25;;;11.90;99.90;;;;;;5056289;28;20101;-72
2022/04/29 11:12:32;;;;;;;7.03;3.85;;;12.00;99.90;;;;;;5091488;28;20373;-72
2022/04/29 11:15:16;;;;;;;7.18;3.70;;;12.10;99.90;;;;;;5091180;28;20036;-72
2022/04/29 11:17:43;;;;;;;8.48;3.72;;;12.10;99.90;;;;;;5091096;28;20097;-72
2022/04/29 11:20:23;;;;;;;11.85;3.83;;;12.20;99.90;;;;;;5056084;28;20036;-72
2022/04/29 11:25:58;;;;;;;6.25;3.90;;;12.20;99.90;;;;;;5091156;28;20044;-72
2022/04/29 11:28:26;;;;;;;8.88;3.15;;;12.10;99.90;;;;;;5091450;28;20105;-72
2022/04/29 11:31:00;;;;;;;5.72;3.70;;;12.20;99.90;;;;;;5091927;28;20048;-72
2022/04/29 11:33:27;;;;;;;14.60;4.00;;;12.40;99.90;;;;;;5073407;28;20050;-72
2022/04/29 11:36:00;;;;;;;6.60;3.95;;;12.30;99.90;;;;;;5077312;28;20044;-73
2022/04/29 11:38:26;;;;;;;5.88;4.30;;;12.20;99.90;;;;;;5083326;28;20044;-74
2022/04/29 11:40:52;;;;;;;6.45;4.05;;;12.20;99.90;;;;;;5084729;28;20069;-71
2022/04/29 11:43:22;;;;;;;8.27;3.80;;;12.10;99.90;;;;;;5094117;28;20040;-72
2022/04/29 11:46:05;;;;;;;6.55;3.92;;;12.10;99.90;;;;;;5092975;28;20036;-71
2022/04/29 11:48:33;;;;;;;6.00;3.70;;;12.10;99.90;;;;;;5093170;28;20044;-72
2022/04/29 11:50:58;;;;;;;5.82;4.50;;;12.20;99.90;;;;;;5090770;28;20044;-73
2022/04/29 11:53:25;;;;;;;7.45;4.32;;;12.10;99.90;;;;;;5092761;28;20035;-73
2022/04/29 11:55:51;;;;;;;5.90;4.05;;;12.10;99.90;;;;;;5090825;28;20048;-72
2022/04/29 11:58:17;;;;;;;6.75;4.07;;;12.10;99.90;;;;;;5089071;28;20079;-72
2022/04/29 12:00:49;;;;;;;7.35;3.85;;;12.20;99.90;;;;;;5080650;28;20028;-72
2022/04/29 12:03:23;;;;;;;8.85;3.80;;;12.10;99.90;;;;;;5073018;28;20028;-72
2022/04/29 12:05:49;;;;;;;11.80;3.83;;;12.10;99.90;;;;;;5072823;28;20039;-72
2022/04/29 12:08:15;;;;;;;6.15;3.88;;;12.00;99.90;;;;;;5072638;28;20136;-74
2022/04/29 12:10:46;;;;;;;7.85;4.00;;;12.00;99.90;;;;;;5055672;28;20043;-74
2022/04/29 12:13:18;;;;;;;8.07;3.90;;;12.00;99.90;;;;;;5072996;28;20044;-72
2022/04/29 12:15:44;;;;;;;4.90;4.43;;;12.10;99.90;;;;;;5072550;28;20097;-72
2022/04/29 12:18:11;;;;;;;4.75;4.00;;;12.30;99.90;;;;;;5072639;28;20044;-72
2022/04/29 12:20:38;;;;;;;10.30;3.90;;;12.30;99.90;;;;;;5072607;28;20404;-72
2022/04/29 12:23:22;;;;;;;5.30;4.10;;;12.30;99.90;;;;;;5072947;28;20481;-72
2022/04/29 12:25:49;;;;;;;12.93;5.25;;;12.30;99.90;;;;;;5072575;28;20484;-72
2022/04/29 12:28:16;;;;;;;7.10;4.80;;;12.20;99.90;;;;;;5072619;28;20036;-72
2022/04/29 12:36:54;;;;;;;11.90;5.22;;;12.10;99.90;;;;;;5090295;28;20048;-72
2022/04/29 12:39:35;;;;;;;7.05;5.28;;;12.00;99.90;;;;;;5072393;28;20517;-72
2022/04/29 12:42:01;;;;;;;8.15;5.80;;;12.00;99.90;;;;;;5072292;28;20086;-72
2022/04/29 12:47:24;;;;;;;14.40;5.47;;;12.10;99.90;;;;;;5074993;28;20051;-72
2022/04/29 12:49:51;;;;;;;10.38;5.55;;;12.00;99.90;;;;;;5075386;28;20046;-73
2022/04/29 12:52:16;;;;;;;10.18;5.55;;;12.00;99.90;;;;;;5093920;28;20075;-72
2022/04/29 12:54:42;;;;;;;11.85;5.95;;;12.00;99.90;;;;;;5075607;28;20036;-72
2022/04/29 12:57:09;;;;;;;8.02;5.13;;;12.00;99.90;;;;;;5075522;28;20040;-74
2022/04/29 12:59:37;;;;;;;12.10;6.10;;;12.00;99.90;;;;;;5075096;28;20059;-72
2022/04/29 13:02:06;;;;;;;8.63;5.78;;;11.90;99.90;;;;;;5093716;28;20119;-73
2022/04/29 13:04:32;;;;;;;12.57;5.38;;;12.00;99.90;;;;;;5075653;28;20032;-73
2022/04/29 13:06:59;;;;;;;15.57;5.55;;;11.90;99.90;;;;;;5075501;28;20089;-72
2022/04/29 13:09:25;;;;;;;8.10;5.28;;;11.90;99.90;;;;;;5075060;28;20087;-72
2022/04/29 13:11:54;;;;;;;7.82;4.88;;;11.90;99.90;;;;;;5075211;28;20059;-73
2022/04/29 13:14:20;;;;;;;11.82;4.97;;;12.00;99.90;;;;;;5075290;28;20093;-72
2022/04/29 13:16:47;;;;;;;10.68;4.78;;;11.90;99.90;;;;;;5093180;28;20051;-72
2022/04/29 13:19:13;;;;;;;10.60;5.68;;;11.90;99.90;;;;;;5074893;28;20047;-73